Time;durP1;ratioP1;P1;durP2;ratioP2;P2;SDS_P1;SDS_P2;PMS_P1;PMS_P2;Temp;Humidity;BMP_temperature;BMP_pressure;BME280_temperature;BME280_humidity;BME280_pressure;Samples;Min_cycle;Max_cycle;Signal;HPM_P1;HPM_P2
2023/01/13 00:01:08;;;;;;;14.05;2.60;;;10.10;99.90;;;;;;5106894;27;20020;-69
2023/01/13 00:03:34;;;;;;;21.30;3.20;;;10.00;99.90;;;;;;5089612;28;20552;-69
2023/01/13 00:06:00;;;;;;;18.80;3.15;;;10.00;99.90;;;;;;5089394;28;20031;-69
2023/01/13 00:08:25;;;;;;;13.13;2.78;;;9.90;99.90;;;;;;5088234;28;20051;-69
2023/01/13 00:10:51;;;;;;;20.25;3.13;;;9.90;99.90;;;;;;5088511;28;20039;-69
2023/01/13 00:13:25;;;;;;;22.20;3.95;;;9.90;99.90;;;;;;5090806;28;20042;-69
2023/01/13 00:15:58;;;;;;;17.73;2.55;;;9.80;99.90;;;;;;5088212;28;20031;-68
2023/01/13 00:18:24;;;;;;;20.40;3.17;;;9.80;99.90;;;;;;5089407;28;20443;-69
2023/01/13 00:21:07;;;;;;;22.95;3.28;;;9.80;99.90;;;;;;5099450;28;20449;-68
2023/01/13 00:23:34;;;;;;;17.75;3.53;;;9.80;99.90;;;;;;5085505;28;20020;-69
2023/01/13 00:26:03;;;;;;;14.85;3.15;;;9.70;99.90;;;;;;5071944;28;20107;-68
2023/01/13 00:28:28;;;;;;;17.98;2.70;;;9.70;99.90;;;;;;5090298;28;20024;-68
2023/01/13 00:30:57;;;;;;;18.77;3.03;;;9.60;99.90;;;;;;5068639;28;20035;-68
2023/01/13 00:33:23;;;;;;;17.02;2.72;;;9.60;99.90;;;;;;5070879;28;20032;-68
2023/01/13 00:35:56;;;;;;;17.30;3.00;;;9.50;99.90;;;;;;5091217;28;20496;-68
2023/01/13 00:38:22;;;;;;;16.85;2.72;;;9.50;99.90;;;;;;5087909;28;20030;-68
2023/01/13 00:40:55;;;;;;;18.17;3.15;;;9.40;99.90;;;;;;5093568;28;20028;-69
2023/01/13 00:43:21;;;;;;;15.48;2.85;;;9.40;99.90;;;;;;5095980;28;20017;-68
2023/01/13 00:45:47;;;;;;;21.25;2.83;;;9.40;99.90;;;;;;5087192;28;20117;-68
2023/01/13 00:48:12;;;;;;;17.75;3.63;;;9.30;99.90;;;;;;5091177;28;20031;-68
2023/01/13 00:50:38;;;;;;;23.75;3.95;;;9.30;99.90;;;;;;5076679;28;20031;-68
2023/01/13 00:53:03;;;;;;;22.00;3.55;;;9.30;99.90;;;;;;5089777;28;20059;-68
2023/01/13 00:55:32;;;;;;;17.27;2.90;;;9.30;99.90;;;;;;5096931;28;20026;-68
2023/01/13 00:58:02;;;;;;;17.90;4.22;;;9.30;99.90;;;;;;5087863;28;20081;-68
2023/01/13 01:00:28;;;;;;;22.38;3.05;;;9.20;99.90;;;;;;5092280;28;20095;-68
2023/01/13 01:02:54;;;;;;;17.73;3.13;;;9.20;99.90;;;;;;5095585;28;20011;-68
2023/01/13 01:05:20;;;;;;;18.42;3.00;;;9.20;99.90;;;;;;5090131;28;20632;-68
2023/01/13 01:07:45;;;;;;;14.80;2.60;;;9.20;99.90;;;;;;5090042;28;20048;-67
2023/01/13 01:10:11;;;;;;;22.33;3.28;;;9.10;99.90;;;;;;5090384;28;20077;-68
2023/01/13 01:12:36;;;;;;;19.00;3.67;;;9.10;99.90;;;;;;5087550;28;20032;-68
2023/01/13 01:15:04;;;;;;;18.25;3.78;;;9.10;99.90;;;;;;5089675;28;20028;-68
2023/01/13 01:17:30;;;;;;;21.42;3.50;;;9.10;99.90;;;;;;5087140;28;20237;-67
2023/01/13 01:19:56;;;;;;;18.00;3.10;;;9.10;99.90;;;;;;5087416;28;20027;-68
2023/01/13 01:22:21;;;;;;;16.58;3.00;;;9.10;99.90;;;;;;5087307;28;20038;-67
2023/01/13 01:24:47;;;;;;;20.95;3.95;;;9.10;99.90;;;;;;5087113;28;20047;-68
2023/01/13 01:27:12;;;;;;;22.30;3.70;;;9.10;99.90;;;;;;5090109;28;20028;-67
2023/01/13 01:29:38;;;;;;;22.08;3.30;;;9.10;99.90;;;;;;5089700;28;20508;-67
2023/01/13 01:32:04;;;;;;;21.92;3.92;;;9.10;99.90;;;;;;5092097;28;20024;-67
2023/01/13 01:34:29;;;;;;;23.20;3.65;;;9.10;99.90;;;;;;5075852;28;20024;-67
2023/01/13 01:36:55;;;;;;;24.63;3.72;;;9.10;99.90;;;;;;5091245;28;20024;-67
2023/01/13 01:39:20;;;;;;;23.20;4.20;;;9.10;99.90;;;;;;5091653;28;20032;-67
2023/01/13 01:44:40;;;;;;;19.33;3.88;;;9.00;99.90;;;;;;5058809;28;20384;-67
2023/01/13 01:47:08;;;;;;;25.13;3.80;;;9.00;99.90;;;;;;5091797;27;20027;-67
2023/01/13 01:49:35;;;;;;;18.77;2.90;;;9.00;99.90;;;;;;5096145;28;20043;-67
2023/01/13 01:52:06;;;;;;;18.95;3.10;;;9.00;99.90;;;;;;5093409;28;20111;-67
2023/01/13 01:54:46;;;;;;;22.40;4.22;;;9.00;99.90;;;;;;5092528;28;20638;-67
2023/01/13 01:57:17;;;;;;;27.35;3.55;;;8.90;99.90;;;;;;5075681;28;20424;-67
2023/01/13 01:59:43;;;;;;;24.65;3.00;;;8.90;99.90;;;;;;5091034;28;20031;-67
2023/01/13 02:02:09;;;;;;;26.48;4.32;;;8.90;99.90;;;;;;5096390;28;20027;-67
2023/01/13 02:04:42;;;;;;;25.40;3.60;;;8.90;99.90;;;;;;5075203;27;20385;-67
2023/01/13 02:07:08;;;;;;;23.70;3.42;;;8.90;99.90;;;;;;5090781;28;20020;-66
2023/01/13 02:09:35;;;;;;;28.38;3.97;;;8.90;99.90;;;;;;5093119;27;20552;-67
2023/01/13 02:14:45;;;;;;;23.13;4.25;;;8.80;99.90;;;;;;5091263;28;20073;-66
2023/01/13 02:17:19;;;;;;;20.05;2.63;;;8.80;99.90;;;;;;5092870;28;20103;-67
2023/01/13 02:20:07;;;;;;;21.98;4.38;;;8.80;99.90;;;;;;5093178;28;20024;-66
2023/01/13 02:22:41;;;;;;;16.30;3.53;;;8.80;99.90;;;;;;5092176;28;20042;-66
2023/01/13 02:25:35;;;;;;;28.73;3.80;;;8.70;99.90;;;;;;5120521;27;20016;-66
2023/01/13 02:28:19;;;;;;;19.20;3.50;;;8.80;99.90;;;;;;5100054;27;20020;-67
2023/01/13 02:33:49;;;;;;;25.58;4.55;;;8.70;99.90;;;;;;5092767;28;20131;-66
2023/01/13 02:36:38;;;;;;;22.83;3.08;;;8.70;99.90;;;;;;5111769;27;20078;-66
2023/01/13 02:39:17;;;;;;;28.60;5.25;;;8.60;99.90;;;;;;5071511;28;20020;-66
2023/01/13 02:44:50;;;;;;;26.42;3.97;;;8.60;99.90;;;;;;5094664;28;20080;-66
2023/01/13 02:47:25;;;;;;;24.05;3.92;;;8.60;99.90;;;;;;5073654;28;20440;-66
2023/01/13 02:50:00;;;;;;;23.90;4.00;;;8.60;99.90;;;;;;5093761;28;20127;-66
2023/01/13 02:52:41;;;;;;;26.30;4.22;;;8.60;99.90;;;;;;5094764;28;20035;-66
2023/01/13 02:55:16;;;;;;;27.80;3.95;;;8.60;99.90;;;;;;5092833;28;20035;-66
2023/01/13 02:57:43;;;;;;;34.08;6.38;;;8.60;99.90;;;;;;5089558;28;20032;-66
2023/01/13 03:00:11;;;;;;;26.67;4.05;;;8.60;99.90;;;;;;5095163;28;20024;-66
2023/01/13 03:02:37;;;;;;;31.30;5.07;;;8.60;99.90;;;;;;5092904;28;20354;-66
2023/01/13 03:05:03;;;;;;;20.38;3.67;;;8.60;99.90;;;;;;5091979;28;20526;-66
2023/01/13 03:07:32;;;;;;;26.75;4.82;;;8.60;99.90;;;;;;5097473;28;20016;-66
2023/01/13 03:10:03;;;;;;;26.33;3.83;;;8.60;99.90;;;;;;5093552;28;20071;-66
2023/01/13 03:12:56;;;;;;;20.52;4.20;;;8.60;99.90;;;;;;5101752;28;20431;-66
2023/01/13 03:15:39;;;;;;;30.27;4.32;;;8.60;99.90;;;;;;5095815;28;20436;-66
2023/01/13 03:18:19;;;;;;;22.02;4.18;;;8.60;99.90;;;;;;5072981;28;20024;-65
2023/01/13 03:21:04;;;;;;;29.52;4.25;;;8.60;99.90;;;;;;5092164;28;20020;-65
2023/01/13 03:23:39;;;;;;;25.88;4.82;;;8.60;99.90;;;;;;5078360;28;20081;-66
2023/01/13 03:26:23;;;;;;;26.95;4.25;;;8.60;99.90;;;;;;5072466;28;20020;-65
2023/01/13 03:28:55;;;;;;;21.27;4.38;;;8.60;99.90;;;;;;5089240;28;20042;-66
2023/01/13 03:31:27;;;;;;;24.48;4.35;;;8.60;99.90;;;;;;5093331;28;20542;-66
2023/01/13 03:34:04;;;;;;;25.25;4.07;;;8.70;99.90;;;;;;5088390;28;20032;-66
2023/01/13 03:36:32;;;;;;;19.48;3.63;;;8.70;99.90;;;;;;5075538;28;20050;-65
2023/01/13 03:39:05;;;;;;;25.27;4.20;;;8.70;99.90;;;;;;5116063;27;20055;-65
2023/01/13 03:41:40;;;;;;;22.30;3.55;;;8.70;99.90;;;;;;5088290;28;20115;-65
2023/01/13 03:44:21;;;;;;;24.90;3.47;;;8.70;99.90;;;;;;5089195;28;20012;-65
2023/01/13 03:47:04;;;;;;;29.92;4.65;;;8.80;99.90;;;;;;5089203;28;20016;-65
2023/01/13 03:49:46;;;;;;;22.48;4.90;;;8.80;99.90;;;;;;5093740;28;20490;-65
2023/01/13 03:52:22;;;;;;;26.10;3.67;;;8.80;99.90;;;;;;5088902;28;20426;-65
2023/01/13 03:54:52;;;;;;;20.63;3.72;;;8.80;99.90;;;;;;5088522;28;20524;-65
2023/01/13 03:57:21;;;;;;;17.85;3.45;;;8.80;99.90;;;;;;5091499;28;20028;-65
2023/01/13 03:59:52;;;;;;;20.00;3.00;;;8.80;99.90;;;;;;5091060;28;20024;-65
2023/01/13 04:02:50;;;;;;;18.65;2.70;;;8.80;99.90;;;;;;5090987;28;20027;-65
2023/01/13 04:05:17;;;;;;;18.35;2.90;;;8.80;99.90;;;;;;5088447;28;20035;-65
2023/01/13 04:08:04;;;;;;;22.55;3.80;;;8.70;99.90;;;;;;5088630;28;20026;-65
2023/01/13 04:10:52;;;;;;;26.35;3.33;;;8.80;99.90;;;;;;5093020;28;20044;-65
2023/01/13 04:13:22;;;;;;;11.98;2.17;;;8.80;99.90;;;;;;5069942;28;20024;-65
2023/01/13 04:15:48;;;;;;;;;;;8.80;99.90;;;;;;5089388;28;20106;-65
2023/01/13 04:18:29;;;;;;;18.30;2.53;;;8.80;99.90;;;;;;5091644;28;20042;-65
2023/01/13 04:20:57;;;;;;;10.48;1.70;;;8.80;99.90;;;;;;5072318;28;20113;-65
2023/01/13 04:23:23;;;;;;;11.80;2.50;;;8.80;99.90;;;;;;5071967;28;20028;-65
2023/01/13 04:25:49;;;;;;;12.50;1.92;;;8.80;99.90;;;;;;5089214;28;20035;-65
2023/01/13 04:28:16;;;;;;;10.13;1.20;;;8.80;99.90;;;;;;5087679;28;20492;-65
2023/01/13 04:30:42;;;;;;;10.23;1.48;;;8.80;99.90;;;;;;5072398;28;20119;-65
2023/01/13 04:33:08;;;;;;;7.53;1.15;;;8.80;99.90;;;;;;5095597;28;20024;-65
2023/01/13 04:35:35;;;;;;;8.07;1.38;;;8.80;99.90;;;;;;5110993;27;20035;-65
2023/01/13 04:38:02;;;;;;;6.68;0.93;;;8.80;99.90;;;;;;5087682;28;20555;-65
2023/01/13 04:40:28;;;;;;;6.63;1.10;;;8.80;99.90;;;;;;5091030;28;20563;-65
2023/01/13 04:42:54;;;;;;;8.95;1.50;;;8.80;99.90;;;;;;5072512;28;20123;-65
2023/01/13 04:45:19;;;;;;;7.65;0.93;;;8.80;99.90;;;;;;5091715;28;20137;-65
2023/01/13 04:47:47;;;;;;;7.18;1.00;;;8.70;99.90;;;;;;5090154;28;20447;-66
2023/01/13 04:50:13;;;;;;;12.07;1.42;;;8.70;99.90;;;;;;5080431;28;20026;-66
2023/01/13 04:52:39;;;;;;;14.35;1.55;;;8.80;99.90;;;;;;5091072;28;20028;-65
2023/01/13 04:55:05;;;;;;;8.20;0.93;;;8.70;99.90;;;;;;5099834;28;20026;-65
2023/01/13 04:57:33;;;;;;;6.90;1.02;;;8.70;99.90;;;;;;5092007;28;20036;-65
2023/01/13 05:00:00;;;;;;;10.20;1.08;;;8.70;99.90;;;;;;5087744;28;20024;-65
2023/01/13 05:02:25;;;;;;;7.60;1.17;;;8.70;99.90;;;;;;5090576;28;20012;-65
2023/01/13 05:04:51;;;;;;;6.80;1.35;;;8.70;99.90;;;;;;5088125;28;20077;-65
2023/01/13 05:07:17;;;;;;;7.75;1.23;;;8.70;99.90;;;;;;5089854;28;20531;-65
2023/01/13 05:09:42;;;;;;;9.30;1.52;;;8.70;99.90;;;;;;5095639;28;20406;-65
2023/01/13 05:17:37;;;;;;;7.18;0.88;;;8.70;99.90;;;;;;5087444;28;20035;-65
2023/01/13 05:20:04;;;;;;;6.32;0.80;;;8.70;99.90;;;;;;5086756;28;20020;-65
2023/01/13 05:25:23;;;;;;;6.97;0.93;;;8.70;99.90;;;;;;5090328;28;20062;-65
2023/01/13 05:27:54;;;;;;;18.17;3.33;;;8.70;99.90;;;;;;5082890;28;20123;-65
2023/01/13 05:30:26;;;;;;;8.75;1.02;;;8.60;99.90;;;;;;5088537;28;20031;-65
2023/01/13 05:32:52;;;;;;;12.60;1.63;;;8.60;99.90;;;;;;5089430;28;20481;-65
2023/01/13 05:35:18;;;;;;;9.23;1.25;;;8.60;99.90;;;;;;5087220;28;20028;-65
2023/01/13 05:37:45;;;;;;;11.38;2.17;;;8.60;99.90;;;;;;5087422;28;20021;-65
2023/01/13 05:43:20;;;;;;;10.40;1.80;;;8.60;99.90;;;;;;5087818;28;20454;-65
2023/01/13 05:45:48;;;;;;;17.53;2.60;;;8.50;99.90;;;;;;5090317;28;20028;-65
2023/01/13 05:48:14;;;;;;;16.65;2.03;;;8.50;99.90;;;;;;5071854;28;20105;-65
2023/01/13 05:50:39;;;;;;;12.32;1.55;;;8.50;99.90;;;;;;5091863;28;20472;-65
2023/01/13 05:53:05;;;;;;;13.98;1.70;;;8.50;99.90;;;;;;5086914;28;20028;-65
2023/01/13 05:55:31;;;;;;;13.15;2.28;;;8.50;99.90;;;;;;5086741;28;20068;-65
2023/01/13 05:57:56;;;;;;;12.85;1.63;;;8.50;99.90;;;;;;5087084;28;20020;-65
2023/01/13 06:00:22;;;;;;;13.73;2.75;;;8.50;99.90;;;;;;5092451;28;20094;-65
2023/01/13 06:02:48;;;;;;;17.02;1.90;;;8.50;99.90;;;;;;5086891;28;20115;-65
2023/01/13 06:05:13;;;;;;;13.75;1.83;;;8.50;99.90;;;;;;5089736;28;20060;-65
2023/01/13 06:07:39;;;;;;;11.98;1.88;;;8.40;99.90;;;;;;5089612;28;20028;-65
2023/01/13 06:10:05;;;;;;;17.52;2.45;;;8.40;99.90;;;;;;5086779;28;20106;-65
2023/01/13 06:12:31;;;;;;;11.98;1.83;;;8.40;99.90;;;;;;5102404;28;20583;-65
2023/01/13 06:14:56;;;;;;;10.38;2.28;;;8.40;99.90;;;;;;5072079;28;20122;-65
2023/01/13 06:17:22;;;;;;;13.30;3.35;;;8.40;99.90;;;;;;5105173;28;20041;-65
2023/01/13 06:19:47;;;;;;;15.82;2.15;;;8.40;99.90;;;;;;5100552;28;20024;-65
2023/01/13 06:22:23;;;;;;;15.50;1.92;;;8.40;99.90;;;;;;5093776;28;20431;-65
2023/01/13 06:24:49;;;;;;;10.10;2.25;;;8.40;99.90;;;;;;5094240;28;20381;-65
2023/01/13 06:27:16;;;;;;;15.07;2.17;;;8.30;99.90;;;;;;5094472;28;20481;-65
2023/01/13 06:29:42;;;;;;;18.98;2.63;;;8.30;99.90;;;;;;5093883;28;20020;-65
2023/01/13 06:32:16;;;;;;;14.75;2.80;;;8.30;99.90;;;;;;5103849;28;20030;-65
2023/01/13 06:34:44;;;;;;;13.40;2.63;;;8.30;99.90;;;;;;5088416;28;20032;-65
2023/01/13 06:37:13;;;;;;;14.65;2.40;;;8.30;99.90;;;;;;5112779;28;20109;-65
2023/01/13 06:39:39;;;;;;;18.30;3.25;;;8.30;99.90;;;;;;5113245;28;20016;-65
2023/01/13 06:44:50;;;;;;;14.52;2.70;;;8.20;99.90;;;;;;5105478;28;20047;-64
2023/01/13 06:47:16;;;;;;;12.57;2.05;;;8.20;99.90;;;;;;5093382;28;20473;-64
2023/01/13 06:49:41;;;;;;;12.48;2.17;;;8.20;99.90;;;;;;5115359;27;20501;-65
2023/01/13 06:52:07;;;;;;;11.82;1.95;;;8.20;99.90;;;;;;5094936;28;20020;-64
2023/01/13 06:54:33;;;;;;;16.15;1.92;;;8.20;99.90;;;;;;5093846;28;20024;-65
2023/01/13 06:56:59;;;;;;;16.35;3.60;;;8.20;99.90;;;;;;5093427;28;20016;-65
2023/01/13 06:59:25;;;;;;;16.13;1.95;;;8.20;99.90;;;;;;5093371;28;20474;-65
2023/01/13 07:01:50;;;;;;;17.73;2.00;;;8.30;99.90;;;;;;5106790;28;20031;-64
2023/01/13 07:04:17;;;;;;;20.77;2.83;;;8.30;99.90;;;;;;5092233;28;20127;-64
2023/01/13 07:06:43;;;;;;;16.10;2.55;;;8.20;99.90;;;;;;5100706;28;20476;-65
2023/01/13 07:09:08;;;;;;;15.95;2.35;;;8.20;99.90;;;;;;5112462;28;20543;-64
2023/01/13 07:11:34;;;;;;;19.38;2.47;;;8.20;99.90;;;;;;5116101;27;20022;-64
2023/01/13 07:16:44;;;;;;;13.48;2.45;;;8.20;99.90;;;;;;5109309;28;20034;-65
2023/01/13 07:19:10;;;;;;;18.08;2.70;;;8.10;99.90;;;;;;5111801;28;20028;-64
2023/01/13 07:21:35;;;;;;;13.93;1.98;;;8.10;99.90;;;;;;5102892;28;20024;-65
2023/01/13 07:24:01;;;;;;;12.52;2.92;;;8.10;99.90;;;;;;5092953;28;20048;-65
2023/01/13 07:26:26;;;;;;;22.50;3.05;;;8.10;99.90;;;;;;5094553;28;20051;-65
2023/01/13 07:28:52;;;;;;;19.40;2.92;;;8.10;99.90;;;;;;5092714;28;20020;-64
2023/01/13 07:31:20;;;;;;;16.90;2.67;;;8.10;99.90;;;;;;5104508;28;20024;-64
2023/01/13 07:33:46;;;;;;;12.55;2.08;;;8.10;99.90;;;;;;5103435;28;20020;-64
2023/01/13 07:36:12;;;;;;;15.95;2.55;;;8.10;99.90;;;;;;5106104;28;20113;-64
2023/01/13 07:38:43;;;;;;;15.93;2.25;;;8.10;99.90;;;;;;5084363;28;20074;-64
2023/01/13 07:43:59;;;;;;;16.73;2.30;;;8.10;99.90;;;;;;5092817;28;20073;-65
2023/01/13 07:46:25;;;;;;;15.55;2.38;;;8.10;99.90;;;;;;5093306;28;20479;-65
2023/01/13 07:48:50;;;;;;;18.48;3.58;;;8.10;99.90;;;;;;5092609;28;20504;-64
2023/01/13 07:51:16;;;;;;;19.08;2.65;;;8.10;99.90;;;;;;5081930;28;20093;-64
2023/01/13 07:53:41;;;;;;;14.65;2.10;;;8.20;99.90;;;;;;5074728;28;20389;-64
2023/01/13 07:56:07;;;;;;;12.35;1.95;;;8.20;99.90;;;;;;5074653;28;20034;-65
2023/01/13 07:58:34;;;;;;;19.50;2.50;;;8.20;99.90;;;;;;5105836;28;20028;-64
2023/01/13 08:01:09;;;;;;;16.15;3.25;;;8.20;99.90;;;;;;5092835;28;20085;-65
2023/01/13 08:03:35;;;;;;;15.32;2.80;;;8.20;99.90;;;;;;5115280;27;20015;-64
2023/01/13 08:06:01;;;;;;;20.63;2.22;;;8.20;99.90;;;;;;5098232;28;20097;-64
2023/01/13 08:08:26;;;;;;;17.73;2.90;;;8.20;99.90;;;;;;5092834;28;20028;-65
2023/01/13 08:10:52;;;;;;;12.32;2.03;;;8.20;99.90;;;;;;5092722;28;20039;-64
2023/01/13 08:13:19;;;;;;;17.05;2.95;;;8.20;99.90;;;;;;5097226;27;20024;-64
2023/01/13 08:15:47;;;;;;;11.45;2.00;;;8.20;99.90;;;;;;5091010;28;20111;-65
2023/01/13 08:18:13;;;;;;;17.98;2.55;;;8.20;99.90;;;;;;5104089;28;20070;-64
2023/01/13 08:20:39;;;;;;;17.75;2.53;;;8.30;99.90;;;;;;5091748;28;20416;-64
2023/01/13 08:23:04;;;;;;;18.95;2.90;;;8.30;99.90;;;;;;5092017;28;20027;-65
2023/01/13 08:25:30;;;;;;;17.70;2.67;;;8.40;99.90;;;;;;5100749;28;20069;-64
2023/01/13 08:27:58;;;;;;;23.27;3.15;;;8.40;99.90;;;;;;5104438;27;20035;-64
2023/01/13 08:30:25;;;;;;;20.38;2.60;;;8.50;99.90;;;;;;5124128;27;20031;-64
2023/01/13 08:32:50;;;;;;;17.55;2.78;;;8.50;99.90;;;;;;5106292;28;20019;-64
2023/01/13 08:35:17;;;;;;;17.55;3.20;;;8.50;99.90;;;;;;5103863;27;20407;-64
2023/01/13 08:37:43;;;;;;;13.45;2.30;;;8.60;99.90;;;;;;5091168;28;20057;-64
2023/01/13 08:40:11;;;;;;;13.85;1.92;;;8.60;99.90;;;;;;5108385;28;20032;-64
2023/01/13 08:42:36;;;;;;;17.70;3.80;;;8.60;99.90;;;;;;5097504;28;20093;-64
2023/01/13 08:45:02;;;;;;;17.75;3.08;;;8.60;99.90;;;;;;5085417;28;20020;-65
2023/01/13 08:47:28;;;;;;;17.98;2.80;;;8.70;99.90;;;;;;5109130;28;20102;-64
2023/01/13 08:49:54;;;;;;;19.45;2.67;;;8.70;99.90;;;;;;5110600;28;20107;-64
2023/01/13 08:52:20;;;;;;;15.40;2.42;;;8.70;99.90;;;;;;5088902;28;20024;-64
2023/01/13 08:54:46;;;;;;;18.25;4.22;;;8.70;99.90;;;;;;5088619;28;20588;-64
2023/01/13 08:57:11;;;;;;;14.70;3.15;;;8.80;99.90;;;;;;5074775;28;20118;-64
2023/01/13 08:59:37;;;;;;;15.43;2.42;;;8.80;99.90;;;;;;5106226;28;20076;-64
2023/01/13 09:02:10;;;;;;;20.50;2.65;;;8.90;99.90;;;;;;5099618;28;20016;-64
2023/01/13 09:04:36;;;;;;;19.40;3.17;;;8.90;99.90;;;;;;5091706;28;20036;-64
2023/01/13 09:07:02;;;;;;;19.27;3.28;;;8.90;99.90;;;;;;5102369;28;20024;-64
2023/01/13 09:09:27;;;;;;;19.52;2.88;;;8.90;99.90;;;;;;5103713;28;20432;-64
2023/01/13 09:14:39;;;;;;;14.88;2.45;;;9.00;99.90;;;;;;5092936;28;20034;-64
2023/01/13 09:17:06;;;;;;;11.90;3.20;;;9.00;99.90;;;;;;5102212;28;20492;-64
2023/01/13 09:19:31;;;;;;;18.42;2.80;;;9.10;99.90;;;;;;5093185;28;20059;-64
2023/01/13 09:21:57;;;;;;;20.63;3.60;;;9.10;99.90;;;;;;5106945;28;20476;-64
2023/01/13 09:24:23;;;;;;;13.38;2.47;;;9.10;99.90;;;;;;5072603;28;20027;-64
2023/01/13 09:26:49;;;;;;;17.05;2.85;;;9.00;99.90;;;;;;5106288;28;20024;-64
2023/01/13 09:29:15;;;;;;;19.25;3.03;;;9.00;99.90;;;;;;5103140;28;20027;-64
2023/01/13 09:31:41;;;;;;;22.88;3.55;;;9.00;99.90;;;;;;5103458;28;20554;-64
2023/01/13 09:36:57;;;;;;;20.10;3.30;;;9.00;99.90;;;;;;5099418;28;20102;-64
2023/01/13 09:39:22;;;;;;;23.27;3.20;;;9.00;99.90;;;;;;5108150;28;20030;-64
2023/01/13 09:44:39;;;;;;;24.13;3.53;;;8.90;99.90;;;;;;5081736;28;20061;-64
2023/01/13 09:47:24;;;;;;;27.02;5.00;;;8.90;99.90;;;;;;5105605;28;20043;-64
2023/01/13 09:49:50;;;;;;;15.30;2.92;;;8.90;99.90;;;;;;5103571;28;20020;-64
2023/01/13 09:52:22;;;;;;;22.55;3.63;;;8.80;99.90;;;;;;5089371;28;20015;-64
2023/01/13 09:54:54;;;;;;;18.50;4.13;;;8.80;99.90;;;;;;5109923;28;20034;-64
2023/01/13 09:57:20;;;;;;;24.15;3.40;;;8.80;99.90;;;;;;5093601;28;20019;-65
2023/01/13 09:59:47;;;;;;;18.92;3.25;;;8.90;99.90;;;;;;5109835;28;20367;-64
2023/01/13 10:02:53;;;;;;;19.98;3.15;;;8.80;99.90;;;;;;5109566;28;20015;-64
2023/01/13 10:05:42;;;;;;;19.45;2.92;;;8.90;99.90;;;;;;5053575;28;20098;-64
2023/01/13 10:08:20;;;;;;;17.85;3.28;;;8.80;99.90;;;;;;5110303;28;20119;-64
2023/01/13 10:10:50;;;;;;;18.10;3.17;;;8.70;99.90;;;;;;5090047;28;20071;-65
2023/01/13 10:13:20;;;;;;;22.88;3.13;;;8.60;99.90;;;;;;5078767;28;20034;-64
2023/01/13 10:16:01;;;;;;;18.63;3.20;;;8.50;99.90;;;;;;5089072;28;20397;-64
2023/01/13 10:18:37;;;;;;;19.33;3.03;;;8.50;99.90;;;;;;5084050;28;20042;-65
2023/01/13 10:21:39;;;;;;;18.98;3.50;;;8.40;99.90;;;;;;5106124;28;20012;-64
2023/01/13 10:24:21;;;;;;;17.73;2.83;;;8.40;99.90;;;;;;5076789;28;20538;-65
2023/01/13 10:27:03;;;;;;;17.95;3.10;;;8.40;99.90;;;;;;5111478;28;20023;-64
2023/01/13 10:29:30;;;;;;;15.93;2.80;;;8.30;99.90;;;;;;5111038;28;20389;-64
2023/01/13 10:31:58;;;;;;;23.88;3.60;;;8.30;99.90;;;;;;5111977;28;20039;-64
2023/01/13 10:34:25;;;;;;;22.40;4.15;;;8.30;99.90;;;;;;5108628;28;20414;-64
2023/01/13 10:37:05;;;;;;;22.67;4.10;;;8.30;99.90;;;;;;5093327;28;20028;-64
2023/01/13 10:39:41;;;;;;;;;;;8.30;99.90;;;;;;5108345;28;20016;-64
2023/01/13 10:42:13;;;;;;;14.18;2.67;;;8.30;99.90;;;;;;5108114;28;19998;-65
2023/01/13 10:44:58;;;;;;;24.73;4.82;;;8.20;99.90;;;;;;5097120;28;20061;-64
2023/01/13 10:47:29;;;;;;;22.13;3.17;;;8.30;99.90;;;;;;5110489;28;20016;-64
2023/01/13 10:50:01;;;;;;;20.23;3.15;;;8.30;99.90;;;;;;5099685;28;20027;-65
2023/01/13 10:52:29;;;;;;;22.35;4.78;;;8.30;99.90;;;;;;5113265;27;20030;-64
2023/01/13 10:54:55;;;;;;;13.68;2.80;;;8.40;99.90;;;;;;5113580;27;20069;-64
2023/01/13 10:57:26;;;;;;;22.17;5.07;;;8.40;99.90;;;;;;5112213;28;20007;-64
2023/01/13 10:59:52;;;;;;;22.88;2.95;;;8.50;99.90;;;;;;5109234;28;20484;-64
2023/01/13 11:02:33;;;;;;;14.57;2.92;;;8.50;99.90;;;;;;5093817;28;20049;-64
2023/01/13 11:05:01;;;;;;;23.52;3.17;;;8.60;99.90;;;;;;5103814;28;20023;-64
2023/01/13 11:07:44;;;;;;;19.02;3.15;;;8.60;99.90;;;;;;5106861;28;20016;-64
2023/01/13 11:10:10;;;;;;;22.73;3.17;;;8.60;99.90;;;;;;5110081;28;20073;-64
2023/01/13 11:12:50;;;;;;;17.25;3.67;;;8.60;99.90;;;;;;5110231;28;20028;-64
2023/01/13 11:15:20;;;;;;;16.38;2.78;;;8.70;99.90;;;;;;5091206;28;20051;-64
2023/01/13 11:17:59;;;;;;;18.55;2.83;;;8.60;99.90;;;;;;5111468;28;20067;-64
2023/01/13 11:20:31;;;;;;;20.92;2.88;;;8.60;99.90;;;;;;5111112;28;20043;-64
2023/01/13 11:23:01;;;;;;;19.58;4.68;;;8.60;99.90;;;;;;5089765;28;20027;-64
2023/01/13 11:25:40;;;;;;;19.83;4.03;;;8.60;99.90;;;;;;5110708;28;20147;-64
2023/01/13 11:28:15;;;;;;;16.73;4.57;;;8.70;99.90;;;;;;5111629;28;20023;-64
2023/01/13 11:30:57;;;;;;;20.52;3.45;;;8.70;99.90;;;;;;5107512;28;20031;-64
2023/01/13 11:33:36;;;;;;;18.30;3.25;;;8.70;99.90;;;;;;5092444;28;20020;-64
2023/01/13 11:36:07;;;;;;;15.90;2.55;;;8.70;99.90;;;;;;5110006;28;20027;-64
2023/01/13 11:39:00;;;;;;;25.70;3.53;;;8.80;99.90;;;;;;5109018;28;20031;-64
2023/01/13 11:41:46;;;;;;;19.35;3.35;;;8.90;99.90;;;;;;5110895;28;20020;-64
2023/01/13 11:44:15;;;;;;;14.60;2.33;;;8.80;99.90;;;;;;5107853;28;20565;-64
2023/01/13 11:46:41;;;;;;;22.30;3.15;;;8.90;99.90;;;;;;5108804;28;20030;-64
2023/01/13 11:49:12;;;;;;;22.88;3.90;;;9.10;99.90;;;;;;5099638;28;20036;-64
2023/01/13 11:51:48;;;;;;;17.10;2.75;;;9.20;99.90;;;;;;5097827;28;20027;-64
2023/01/13 11:54:30;;;;;;;11.85;2.70;;;9.20;99.90;;;;;;5074786;28;20020;-64
2023/01/13 11:57:16;;;;;;;14.00;2.78;;;9.60;99.90;;;;;;5074592;28;20397;-64
2023/01/13 11:59:54;;;;;;;20.35;4.40;;;9.80;99.90;;;;;;5092229;28;20606;-64
2023/01/13 12:02:25;;;;;;;15.52;2.58;;;9.80;99.90;;;;;;5077704;28;20063;-64
2023/01/13 12:05:19;;;;;;;24.58;4.78;;;9.70;99.90;;;;;;5092486;28;20021;-64
2023/01/13 12:08:08;;;;;;;15.82;2.50;;;9.60;99.90;;;;;;5092397;28;20027;-64
2023/01/13 12:11:01;;;;;;;12.73;2.03;;;9.40;99.90;;;;;;5078479;28;20044;-64
2023/01/13 12:13:56;;;;;;;16.38;3.10;;;9.30;99.90;;;;;;5096332;28;20399;-64
2023/01/13 12:16:29;;;;;;;16.42;2.70;;;9.30;99.90;;;;;;5067558;28;20042;-64
2023/01/13 12:19:28;;;;;;;15.30;3.35;;;9.20;99.90;;;;;;5088190;28;20023;-64
2023/01/13 12:22:15;;;;;;;19.60;3.60;;;9.20;99.90;;;;;;5073974;28;20024;-64
2023/01/13 12:25:03;;;;;;;20.15;3.20;;;9.10;99.90;;;;;;5105734;28;20028;-64
2023/01/13 12:27:47;;;;;;;16.73;2.42;;;9.10;99.90;;;;;;5092425;28;20026;-64
2023/01/13 12:30:44;;;;;;;16.15;2.25;;;9.10;99.90;;;;;;5105656;28;20533;-64
2023/01/13 12:33:42;;;;;;;16.85;3.15;;;9.10;99.90;;;;;;5099345;28;20043;-64
2023/01/13 12:36:39;;;;;;;20.25;2.90;;;9.10;99.90;;;;;;5087688;28;20031;-64
2023/01/13 12:39:27;;;;;;;15.60;2.58;;;9.20;99.90;;;;;;5086772;28;20047;-64
2023/01/13 12:45:10;;;;;;;15.35;2.35;;;9.20;99.90;;;;;;5093827;28;20027;-64
2023/01/13 12:47:38;;;;;;;17.17;2.28;;;9.30;99.90;;;;;;5073001;28;20107;-64
2023/01/13 12:50:21;;;;;;;21.73;2.83;;;9.20;99.90;;;;;;5098503;28;20065;-64
2023/01/13 12:52:51;;;;;;;16.33;3.20;;;9.20;99.90;;;;;;5091332;28;20493;-64
2023/01/13 12:55:34;;;;;;;12.27;2.30;;;9.20;99.90;;;;;;5096134;28;20388;-64
2023/01/13 12:58:05;;;;;;;12.13;2.30;;;9.20;99.90;;;;;;5097284;28;20020;-64
2023/01/13 13:00:40;;;;;;;16.00;2.38;;;9.20;99.90;;;;;;5073066;28;20580;-64
2023/01/13 13:03:12;;;;;;;22.90;4.18;;;9.20;99.90;;;;;;5091131;28;20427;-64
2023/01/13 13:05:44;;;;;;;14.32;2.85;;;9.20;99.90;;;;;;5100147;28;20022;-64
2023/01/13 13:08:32;;;;;;;17.17;2.60;;;9.30;99.90;;;;;;5088596;28;20419;-65
2023/01/13 13:13:16;;;;;;;15.15;2.10;;;9.30;99.90;;;;;;5107924;28;20146;-65
2023/01/13 13:13:53;;;;;;;13.65;2.45;;;9.30;99.90;;;;;;5109936;28;20024;-65
2023/01/13 13:16:24;;;;;;;17.75;3.15;;;9.30;99.90;;;;;;5114133;28;20064;-65
2023/01/13 13:18:50;;;;;;;14.95;2.58;;;9.30;99.90;;;;;;5109134;28;20023;-65
2023/01/13 13:21:16;;;;;;;13.10;2.63;;;9.30;99.90;;;;;;5108100;28;20520;-65
2023/01/13 13:23:55;;;;;;;10.95;2.00;;;9.20;99.90;;;;;;5109001;28;20028;-64
2023/01/13 13:26:41;;;;;;;16.10;2.55;;;9.30;99.90;;;;;;5107239;28;20061;-65
2023/01/13 13:29:24;;;;;;;21.10;3.08;;;9.20;99.90;;;;;;5090705;28;20076;-65
2023/01/13 13:32:20;;;;;;;13.90;2.45;;;9.20;99.90;;;;;;5107163;28;20035;-64
2023/01/13 13:34:58;;;;;;;15.57;2.42;;;9.20;99.90;;;;;;5110918;28;20037;-65
2023/01/13 13:37:29;;;;;;;18.10;2.95;;;9.20;99.90;;;;;;5111041;28;20023;-65
2023/01/13 13:48:27;;;;;;;15.38;2.20;;;9.30;99.90;;;;;;5111103;28;20495;-64
2023/01/13 13:50:56;;;;;;;13.20;2.75;;;9.30;99.90;;;;;;5091297;28;20040;-65
2023/01/13 13:53:25;;;;;;;21.50;3.07;;;9.30;99.90;;;;;;5113151;28;20019;-65
2023/01/13 13:56:00;;;;;;;20.58;3.20;;;9.30;99.90;;;;;;5111444;28;20098;-64
2023/01/13 13:58:28;;;;;;;18.33;2.38;;;9.30;99.90;;;;;;5102281;28;20039;-65
2023/01/13 14:00:55;;;;;;;12.73;2.15;;;9.30;99.90;;;;;;5106538;28;20073;-65